Time;durP1;ratioP1;P1;durP2;ratioP2;P2;SDS_P1;SDS_P2;PMS_P1;PMS_P2;Temp;Humidity;BMP_temperature;BMP_pressure;BME280_temperature;BME280_humidity;BME280_pressure;Samples;Min_cycle;Max_cycle;Signal;HPM_P1;HPM_P2
2023/12/04 00:01:11;;;;;;;22.33;9.60;;;;;;;;;;5073494;28;20116;-26
2023/12/04 00:03:36;;;;;;;20.10;9.27;;;;;;;;;;5072774;28;20789;-26
2023/12/04 00:06:01;;;;;;;20.10;9.70;;;;;;;;;;5074412;28;20074;-26
2023/12/04 00:08:27;;;;;;;25.20;9.47;;;;;;;;;;5073825;28;20250;-26
2023/12/04 00:10:54;;;;;;;23.77;10.20;;;;;;;;;;5074358;28;20293;-26
2023/12/04 00:13:19;;;;;;;21.42;9.48;;;;;;;;;;5073990;28;20330;-26
2023/12/04 00:15:44;;;;;;;24.90;10.23;;;;;;;;;;5072687;28;20056;-26
2023/12/04 00:18:09;;;;;;;20.83;9.35;;;;;;;;;;5073859;28;20456;-26
2023/12/04 00:20:35;;;;;;;23.88;10.38;;;;;;;;;;5073863;28;20509;-27
2023/12/04 00:23:00;;;;;;;22.23;9.60;;;;;;;;;;5072591;28;20024;-26
2023/12/04 00:25:26;;;;;;;20.90;9.90;;;;;;;;;;5073842;28;20024;-27
2023/12/04 00:27:51;;;;;;;22.15;9.52;;;;;;;;;;5073736;28;20013;-26
2023/12/04 00:30:16;;;;;;;21.98;9.68;;;;;;;;;;5055773;28;20009;-27
2023/12/04 00:32:41;;;;;;;22.67;9.65;;;;;;;;;;5073702;28;20062;-26
2023/12/04 00:35:06;;;;;;;22.95;10.10;;;;;;;;;;5072374;28;20021;-26
2023/12/04 00:37:32;;;;;;;22.40;9.05;;;;;;;;;;5073984;28;20048;-26
2023/12/04 00:39:57;;;;;;;20.80;9.73;;;;;;;;;;5072463;28;20019;-26
2023/12/04 00:42:23;;;;;;;21.20;9.35;;;;;;;;;;5073563;28;20013;-26
2023/12/04 00:44:48;;;;;;;19.52;9.60;;;;;;;;;;5073455;28;20418;-26
2023/12/04 00:47:13;;;;;;;24.40;10.23;;;;;;;;;;5073985;28;20056;-26
2023/12/04 00:49:38;;;;;;;23.25;9.40;;;;;;;;;;5073710;28;20726;-27
2023/12/04 00:52:04;;;;;;;21.92;10.27;;;;;;;;;;5073345;28;20024;-26
2023/12/04 00:54:29;;;;;;;21.15;9.90;;;;;;;;;;5073285;28;20017;-26
2023/12/04 00:56:54;;;;;;;20.35;9.30;;;;;;;;;;5073246;28;20487;-26
2023/12/04 00:59:19;;;;;;;21.77;10.10;;;;;;;;;;5073332;28;20399;-26
2023/12/04 01:01:44;;;;;;;19.15;8.68;;;;;;;;;;5073503;28;20105;-27
2023/12/04 01:04:10;;;;;;;22.33;9.60;;;;;;;;;;5073187;28;20448;-26
2023/12/04 01:06:35;;;;;;;19.38;8.75;;;;;;;;;;5073190;28;20021;-26
2023/12/04 01:09:00;;;;;;;22.63;9.52;;;;;;;;;;5073462;28;20023;-26
2023/12/04 01:11:25;;;;;;;21.90;9.85;;;;;;;;;;5072993;28;20017;-26
2023/12/04 01:13:51;;;;;;;23.73;9.90;;;;;;;;;;5074573;28;20027;-26
2023/12/04 01:16:17;;;;;;;19.80;9.40;;;;;;;;;;5077380;28;20329;-26
2023/12/04 01:18:42;;;;;;;21.38;10.15;;;;;;;;;;5077007;28;20047;-26
2023/12/04 01:21:10;;;;;;;23.60;10.43;;;;;;;;;;5077599;28;20056;-26
2023/12/04 01:23:36;;;;;;;22.27;9.82;;;;;;;;;;5076988;28;20085;-26
2023/12/04 01:26:04;;;;;;;18.55;9.30;;;;;;;;;;5076864;28;20099;-26
2023/12/04 01:28:29;;;;;;;22.70;9.68;;;;;;;;;;5077058;28;20013;-26
2023/12/04 01:30:54;;;;;;;23.95;10.38;;;;;;;;;;5076778;28;20027;-26
2023/12/04 01:33:20;;;;;;;26.00;10.60;;;;;;;;;;5077059;28;20024;-26
2023/12/04 01:35:45;;;;;;;24.10;10.40;;;;;;;;;;5076716;28;20050;-27
2023/12/04 01:38:10;;;;;;;22.63;10.32;;;;;;;;;;5076953;28;20266;-27
2023/12/04 01:40:35;;;;;;;21.30;10.05;;;;;;;;;;5076616;28;20509;-26
2023/12/04 01:43:01;;;;;;;25.93;9.73;;;;;;;;;;5076444;28;20017;-26
2023/12/04 01:45:26;;;;;;;21.05;9.85;;;;;;;;;;5076479;28;20285;-26
2023/12/04 01:47:51;;;;;;;22.15;10.00;;;;;;;;;;5076529;28;20021;-26
2023/12/04 01:50:17;;;;;;;21.17;9.57;;;;;;;;;;5077036;28;20360;-26
2023/12/04 01:52:42;;;;;;;25.25;10.20;;;;;;;;;;5076553;28;20021;-26
2023/12/04 01:55:08;;;;;;;22.40;10.03;;;;;;;;;;5076489;28;20175;-26
2023/12/04 01:57:33;;;;;;;20.52;10.15;;;;;;;;;;5076340;28;20274;-26
2023/12/04 01:59:59;;;;;;;23.33;10.50;;;;;;;;;;5076155;28;20048;-26
2023/12/04 02:02:24;;;;;;;27.02;11.23;;;;;;;;;;5076408;28;20027;-26
2023/12/04 02:04:49;;;;;;;24.50;10.35;;;;;;;;;;5076181;28;20486;-27
2023/12/04 02:07:14;;;;;;;23.90;9.98;;;;;;;;;;5076750;28;20027;-26
2023/12/04 02:09:40;;;;;;;24.52;10.88;;;;;;;;;;5076701;28;20008;-26
2023/12/04 02:12:05;;;;;;;27.40;10.47;;;;;;;;;;5075996;28;20016;-26
2023/12/04 02:14:30;;;;;;;21.63;10.02;;;;;;;;;;5076541;28;20251;-26
2023/12/04 02:16:56;;;;;;;20.15;9.73;;;;;;;;;;5076000;28;20021;-26
2023/12/04 02:19:21;;;;;;;23.77;10.10;;;;;;;;;;5076247;28;20435;-27
2023/12/04 02:21:47;;;;;;;23.63;10.60;;;;;;;;;;5076381;28;20027;-26
2023/12/04 02:24:12;;;;;;;22.90;10.53;;;;;;;;;;5075764;28;20090;-27
2023/12/04 02:26:52;;;;;;;25.70;10.18;;;;;;;;;;5075601;28;20255;-26
2023/12/04 02:29:22;;;;;;;22.95;10.13;;;;;;;;;;5075791;28;20070;-27
2023/12/04 02:31:48;;;;;;;24.63;9.88;;;;;;;;;;5075752;28;20031;-26
2023/12/04 02:34:14;;;;;;;25.80;10.57;;;;;;;;;;5075983;28;20107;-26
2023/12/04 02:36:40;;;;;;;26.25;11.10;;;;;;;;;;5075606;28;20025;-26
2023/12/04 02:39:05;;;;;;;22.80;10.32;;;;;;;;;;5074307;28;20028;-26
2023/12/04 02:41:31;;;;;;;19.80;8.43;;;;;;;;;;5075466;28;20036;-27
2023/12/04 02:43:56;;;;;;;27.23;10.32;;;;;;;;;;5075770;28;20020;-26
2023/12/04 02:46:21;;;;;;;24.97;9.53;;;;;;;;;;5075509;28;20577;-26
2023/12/04 02:48:46;;;;;;;21.02;9.25;;;;;;;;;;5075687;28;20259;-26
2023/12/04 02:51:11;;;;;;;23.10;10.83;;;;;;;;;;5075374;28;20016;-26
2023/12/04 02:53:36;;;;;;;23.27;10.23;;;;;;;;;;5075891;28;20290;-26
2023/12/04 02:56:02;;;;;;;22.43;10.07;;;;;;;;;;5075275;28;20738;-26
2023/12/04 02:58:27;;;;;;;22.73;9.70;;;;;;;;;;5075419;28;20255;-27
2023/12/04 03:00:52;;;;;;;21.17;10.07;;;;;;;;;;5075022;28;20041;-26
2023/12/04 03:03:17;;;;;;;21.63;10.80;;;;;;;;;;5075069;28;20776;-27
2023/12/04 03:05:42;;;;;;;27.77;10.13;;;;;;;;;;5075612;28;20254;-26
2023/12/04 03:08:07;;;;;;;22.60;9.80;;;;;;;;;;5075068;28;20243;-26
2023/12/04 03:10:33;;;;;;;23.47;10.37;;;;;;;;;;5074951;28;20390;-27
2023/12/04 03:12:58;;;;;;;27.95;10.88;;;;;;;;;;5074882;28;20261;-31
2023/12/04 03:15:23;;;;;;;21.70;9.40;;;;;;;;;;5074895;28;20020;-27
2023/12/04 03:17:48;;;;;;;20.50;9.75;;;;;;;;;;5075271;28;20247;-26
2023/12/04 03:20:13;;;;;;;20.52;9.43;;;;;;;;;;5074927;28;20044;-26
2023/12/04 03:22:39;;;;;;;21.95;9.63;;;;;;;;;;5074529;28;20032;-27
2023/12/04 03:25:04;;;;;;;23.95;9.40;;;;;;;;;;5075100;28;20013;-27
2023/12/04 03:27:29;;;;;;;23.55;9.85;;;;;;;;;;5074709;28;20042;-26
2023/12/04 03:29:54;;;;;;;24.50;10.07;;;;;;;;;;5074646;28;20016;-26
2023/12/04 03:32:20;;;;;;;23.10;9.77;;;;;;;;;;5075046;28;20028;-26
2023/12/04 03:34:45;;;;;;;26.05;10.73;;;;;;;;;;5075044;28;20032;-26
2023/12/04 03:37:10;;;;;;;22.90;9.85;;;;;;;;;;5073738;28;20070;-26
2023/12/04 03:39:35;;;;;;;22.98;10.02;;;;;;;;;;5074643;28;20016;-26
2023/12/04 03:42:01;;;;;;;21.25;9.55;;;;;;;;;;5074160;28;20451;-26
2023/12/04 03:44:26;;;;;;;22.33;10.27;;;;;;;;;;5074287;28;20103;-26
2023/12/04 03:46:51;;;;;;;23.57;10.47;;;;;;;;;;5074186;28;20255;-27
2023/12/04 03:49:16;;;;;;;23.08;9.95;;;;;;;;;;5074470;28;20290;-26
2023/12/04 03:51:42;;;;;;;21.17;10.02;;;;;;;;;;5074114;28;20017;-26
2023/12/04 03:54:07;;;;;;;25.53;10.10;;;;;;;;;;5074670;28;20016;-27
2023/12/04 03:56:32;;;;;;;21.77;9.77;;;;;;;;;;5074588;28;20348;-26
2023/12/04 03:58:57;;;;;;;23.87;10.20;;;;;;;;;;5072678;28;20716;-26
2023/12/04 04:01:22;;;;;;;20.10;9.60;;;;;;;;;;5073783;28;20340;-26
2023/12/04 04:03:47;;;;;;;22.30;9.50;;;;;;;;;;5073953;28;20029;-26
2023/12/04 04:06:13;;;;;;;19.03;9.00;;;;;;;;;;5072563;28;20341;-26
2023/12/04 04:08:38;;;;;;;20.13;9.90;;;;;;;;;;5074040;28;20266;-27
2023/12/04 04:11:04;;;;;;;21.73;8.87;;;;;;;;;;5074000;28;20009;-26
2023/12/04 04:13:29;;;;;;;20.92;9.40;;;;;;;;;;5073990;28;20259;-26
2023/12/04 04:15:54;;;;;;;22.07;8.97;;;;;;;;;;5074021;28;20025;-26
2023/12/04 04:18:19;;;;;;;20.83;9.70;;;;;;;;;;5073728;28;20251;-26
2023/12/04 04:20:44;;;;;;;19.50;9.15;;;;;;;;;;5073663;28;20331;-26
2023/12/04 04:23:10;;;;;;;18.77;8.63;;;;;;;;;;5073843;28;20367;-26
2023/12/04 04:25:35;;;;;;;24.73;9.75;;;;;;;;;;5073899;28;20274;-26
2023/12/04 04:28:00;;;;;;;20.67;9.63;;;;;;;;;;5073590;28;20027;-26
2023/12/04 04:30:25;;;;;;;20.45;9.23;;;;;;;;;;5073526;28;20246;-26
2023/12/04 04:32:50;;;;;;;16.97;8.10;;;;;;;;;;5073519;28;20550;-26
2023/12/04 04:35:16;;;;;;;21.23;9.02;;;;;;;;;;5073421;28;20361;-26
2023/12/04 04:37:41;;;;;;;16.00;8.25;;;;;;;;;;5072208;28;20042;-26
2023/12/04 04:40:06;;;;;;;21.85;9.05;;;;;;;;;;5073421;28;20016;-26
2023/12/04 04:42:31;;;;;;;23.15;9.57;;;;;;;;;;5073372;28;20021;-26
2023/12/04 04:44:57;;;;;;;23.98;9.10;;;;;;;;;;5073694;28;20022;-26
2023/12/04 04:47:22;;;;;;;22.33;9.07;;;;;;;;;;5073334;28;20022;-26
2023/12/04 04:49:47;;;;;;;17.75;8.27;;;;;;;;;;5073282;28;20753;-27
2023/12/04 04:52:12;;;;;;;17.58;8.50;;;;;;;;;;5073583;28;20012;-26
2023/12/04 04:54:38;;;;;;;19.97;8.63;;;;;;;;;;5072059;28;20111;-26
2023/12/04 04:57:03;;;;;;;18.63;8.57;;;;;;;;;;5073191;28;20356;-26
2023/12/04 04:59:30;;;;;;;18.23;8.73;;;;;;;;;;5073327;28;20052;-26
2023/12/04 05:01:55;;;;;;;22.08;8.55;;;;;;;;;;5073411;28;20375;-26
2023/12/04 05:04:21;;;;;;;18.15;8.55;;;;;;;;;;5073157;28;20095;-26
2023/12/04 05:06:46;;;;;;;18.13;8.23;;;;;;;;;;5071958;28;20014;-27
2023/12/04 05:09:11;;;;;;;18.10;8.48;;;;;;;;;;5073711;28;20066;-26
2023/12/04 05:11:36;;;;;;;16.97;7.40;;;;;;;;;;5073024;28;20072;-26
2023/12/04 05:14:01;;;;;;;19.47;8.40;;;;;;;;;;5073657;28;20267;-26
2023/12/04 05:16:26;;;;;;;20.07;7.73;;;;;;;;;;5073082;28;20744;-26
2023/12/04 05:18:52;;;;;;;19.47;8.33;;;;;;;;;;5073047;28;20258;-27
2023/12/04 05:21:17;;;;;;;19.00;8.77;;;;;;;;;;5073050;28;20255;-26
2023/12/04 05:23:42;;;;;;;17.48;8.75;;;;;;;;;;5072918;28;20385;-26
2023/12/04 05:26:07;;;;;;;17.85;8.00;;;;;;;;;;5073518;28;20021;-26
2023/12/04 05:28:34;;;;;;;16.90;8.05;;;;;;;;;;5073190;28;20020;-27
2023/12/04 05:30:59;;;;;;;19.92;8.93;;;;;;;;;;5073240;28;20399;-26
2023/12/04 05:33:24;;;;;;;19.33;8.77;;;;;;;;;;5073144;28;20023;-26
2023/12/04 05:35:52;;;;;;;16.52;7.97;;;;;;;;;;5072904;28;20035;-26
2023/12/04 05:38:17;;;;;;;19.08;8.30;;;;;;;;;;5072903;28;20074;-27
2023/12/04 05:40:43;;;;;;;18.35;7.90;;;;;;;;;;5073121;28;20024;-26
2023/12/04 05:43:08;;;;;;;16.88;8.52;;;;;;;;;;5071515;28;20493;-26
2023/12/04 05:45:33;;;;;;;15.37;8.17;;;;;;;;;;5072748;28;20153;-27
2023/12/04 05:47:58;;;;;;;16.08;8.50;;;;;;;;;;5073051;28;20258;-26
2023/12/04 05:50:23;;;;;;;13.70;7.00;;;;;;;;;;5073319;28;20021;-34
2023/12/04 05:52:48;;;;;;;18.10;8.10;;;;;;;;;;5072803;28;20743;-27
2023/12/04 05:55:14;;;;;;;17.67;8.63;;;;;;;;;;5072656;28;20270;-27
2023/12/04 05:57:39;;;;;;;17.80;8.33;;;;;;;;;;5072719;28;20112;-27
2023/12/04 06:00:12;;;;;;;17.08;8.48;;;;;;;;;;5073606;28;20305;-26
2023/12/04 06:02:37;;;;;;;18.10;8.23;;;;;;;;;;5076436;28;20036;-26
2023/12/04 06:05:03;;;;;;;19.60;8.55;;;;;;;;;;5076523;28;20013;-26
2023/12/04 06:07:28;;;;;;;18.05;7.95;;;;;;;;;;5076120;28;20020;-27
2023/12/04 06:09:54;;;;;;;15.73;8.07;;;;;;;;;;5076149;28;20470;-26
2023/12/04 06:12:19;;;;;;;17.70;8.13;;;;;;;;;;5075934;28;20028;-26
2023/12/04 06:14:44;;;;;;;20.07;8.00;;;;;;;;;;5075983;28;20031;-26
2023/12/04 06:17:09;;;;;;;17.45;8.48;;;;;;;;;;5076480;28;20259;-26
2023/12/04 06:19:34;;;;;;;13.83;7.17;;;;;;;;;;5076571;28;20024;-27
2023/12/04 06:22:00;;;;;;;17.97;8.50;;;;;;;;;;5075823;28;20697;-27
2023/12/04 06:24:25;;;;;;;17.92;8.02;;;;;;;;;;5076328;28;20251;-26
2023/12/04 06:26:50;;;;;;;14.98;7.05;;;;;;;;;;5075741;28;20025;-27
2023/12/04 06:29:15;;;;;;;19.33;8.32;;;;;;;;;;5075707;28;20021;-26
2023/12/04 06:31:41;;;;;;;14.25;7.82;;;;;;;;;;5075730;28;20100;-27
2023/12/04 06:34:06;;;;;;;16.95;8.73;;;;;;;;;;5075943;28;20012;-26
2023/12/04 06:36:35;;;;;;;14.57;8.25;;;;;;;;;;5075588;28;20017;-26
2023/12/04 06:39:01;;;;;;;14.50;7.65;;;;;;;;;;5076094;28;20009;-27
2023/12/04 06:41:26;;;;;;;12.70;6.72;;;;;;;;;;5075802;28;20352;-26
2023/12/04 06:43:52;;;;;;;16.67;7.63;;;;;;;;;;5074221;28;20016;-26
2023/12/04 06:46:20;;;;;;;15.77;7.38;;;;;;;;;;5074171;28;20111;-26
2023/12/04 06:48:47;;;;;;;14.85;7.63;;;;;;;;;;5075367;28;20016;-26
2023/12/04 06:51:13;;;;;;;16.00;7.43;;;;;;;;;;5075345;28;20384;-26
2023/12/04 06:53:38;;;;;;;13.83;7.20;;;;;;;;;;5075329;28;20025;-26
2023/12/04 06:56:03;;;;;;;14.53;7.70;;;;;;;;;;5075560;28;20338;-26
2023/12/04 06:58:28;;;;;;;11.77;6.80;;;;;;;;;;5075732;28;20289;-26
2023/12/04 07:00:53;;;;;;;14.57;7.30;;;;;;;;;;5074938;28;20127;-26
2023/12/04 07:03:19;;;;;;;13.85;7.00;;;;;;;;;;5075539;28;20279;-27
2023/12/04 07:05:44;;;;;;;16.05;7.05;;;;;;;;;;5075360;28;20486;-27
2023/12/04 07:08:10;;;;;;;12.48;6.78;;;;;;;;;;5075218;28;20012;-27
2023/12/04 07:10:35;;;;;;;15.32;6.75;;;;;;;;;;5074984;28;20017;-26
2023/12/04 07:13:00;;;;;;;12.35;6.13;;;;;;;;;;5073891;28;20016;-26
2023/12/04 07:15:25;;;;;;;12.87;6.77;;;;;;;;;;5075454;28;20055;-26
2023/12/04 07:17:50;;;;;;;13.32;7.10;;;;;;;;;;5074740;28;20757;-26
2023/12/04 07:20:16;;;;;;;15.07;6.87;;;;;;;;;;5075227;28;20031;-26
2023/12/04 07:22:41;;;;;;;13.35;6.80;;;;;;;;;;5074765;28;20595;-26
2023/12/04 07:25:09;;;;;;;14.45;7.15;;;;;;;;;;5074907;28;20015;-26
2023/12/04 07:27:34;;;;;;;14.30;6.38;;;;;;;;;;5074824;28;20375;-26
2023/12/04 07:30:00;;;;;;;12.52;6.40;;;;;;;;;;5074497;28;20107;-26
2023/12/04 07:32:25;;;;;;;13.98;7.03;;;;;;;;;;5074347;28;20103;-26
2023/12/04 07:34:50;;;;;;;14.07;6.60;;;;;;;;;;5072305;28;20082;-26
2023/12/04 07:37:15;;;;;;;11.45;6.43;;;;;;;;;;5072249;28;20334;-27
2023/12/04 07:39:43;;;;;;;12.83;6.87;;;;;;;;;;5070928;28;20020;-26
2023/12/04 07:42:09;;;;;;;12.57;6.53;;;;;;;;;;5072041;28;20358;-26
2023/12/04 07:44:34;;;;;;;14.02;6.38;;;;;;;;;;5072467;28;20503;-27
2023/12/04 07:46:59;;;;;;;11.48;6.25;;;;;;;;;;5072307;28;20095;-28
2023/12/04 07:49:25;;;;;;;14.03;6.97;;;;;;;;;;5073663;28;20017;-26
2023/12/04 07:51:50;;;;;;;12.45;6.57;;;;;;;;;;5074367;28;20251;-26
2023/12/04 07:54:15;;;;;;;13.20;6.47;;;;;;;;;;5074611;28;20103;-26
2023/12/04 07:56:40;;;;;;;12.32;6.57;;;;;;;;;;5073948;28;20247;-26
2023/12/04 07:59:05;;;;;;;12.43;6.70;;;;;;;;;;5074325;28;20017;-27
2023/12/04 08:01:30;;;;;;;12.55;6.50;;;;;;;;;;5074107;28;20259;-26
2023/12/04 08:03:56;;;;;;;13.70;6.97;;;;;;;;;;5074115;28;20044;-26
2023/12/04 08:06:21;;;;;;;13.77;6.60;;;;;;;;;;5074440;28;20052;-26
2023/12/04 08:08:46;;;;;;;13.70;6.83;;;;;;;;;;5073772;28;20764;-26
2023/12/04 08:11:11;;;;;;;13.70;7.25;;;;;;;;;;5073690;28;20285;-26
2023/12/04 08:13:40;;;;;;;14.05;6.45;;;;;;;;;;5073910;28;20090;-26
2023/12/04 08:16:12;;;;;;;15.43;6.80;;;;;;;;;;5073963;28;20023;-26
2023/12/04 08:18:37;;;;;;;12.52;6.65;;;;;;;;;;5073583;28;20379;-26
2023/12/04 08:21:02;;;;;;;13.15;6.20;;;;;;;;;;5071797;28;20044;-26
2023/12/04 08:23:28;;;;;;;9.15;5.53;;;;;;;;;;5073154;28;20081;-26
2023/12/04 08:25:53;;;;;;;9.23;5.05;;;;;;;;;;5073891;28;20079;-26
2023/12/04 08:28:18;;;;;;;11.85;6.15;;;;;;;;;;5073517;28;20460;-27
2023/12/04 08:30:43;;;;;;;14.43;6.47;;;;;;;;;;5073611;28;20259;-27
2023/12/04 08:33:09;;;;;;;12.43;6.00;;;;;;;;;;5074003;28;20247;-26
2023/12/04 08:35:34;;;;;;;10.52;5.40;;;;;;;;;;5073371;28;20707;-26
2023/12/04 08:37:59;;;;;;;12.10;6.23;;;;;;;;;;5073887;28;20020;-26
2023/12/04 08:40:24;;;;;;;11.47;5.90;;;;;;;;;;5073694;28;20255;-27
2023/12/04 08:42:49;;;;;;;8.88;5.47;;;;;;;;;;5073311;28;20281;-26
2023/12/04 08:45:14;;;;;;;9.80;5.32;;;;;;;;;;5073397;28;20016;-26
2023/12/04 08:47:40;;;;;;;10.77;5.80;;;;;;;;;;5073274;28;20013;-26
2023/12/04 08:50:05;;;;;;;11.90;5.70;;;;;;;;;;5073529;28;20024;-26
2023/12/04 08:52:31;;;;;;;15.02;6.47;;;;;;;;;;5073879;28;20048;-26
2023/12/04 08:54:56;;;;;;;14.00;6.13;;;;;;;;;;5073206;28;20020;-26
2023/12/04 08:57:21;;;;;;;11.52;5.70;;;;;;;;;;5073240;28;20020;-26
2023/12/04 08:59:46;;;;;;;12.50;5.83;;;;;;;;;;5073068;28;20086;-27
2023/12/04 09:02:11;;;;;;;13.03;6.00;;;;;;;;;;5073109;28;20274;-27
2023/12/04 09:04:37;;;;;;;11.37;5.73;;;;;;;;;;5073012;28;20251;-27
2023/12/04 09:07:02;;;;;;;12.80;5.50;;;;;;;;;;5073249;28;20290;-27
2023/12/04 09:09:27;;;;;;;9.35;5.00;;;;;;;;;;5072890;28;20013;-26
2023/12/04 09:11:52;;;;;;;7.53;4.43;;;;;;;;;;5072881;28;20105;-26
2023/12/04 09:14:17;;;;;;;10.63;5.60;;;;;;;;;;5073429;28;20265;-26
2023/12/04 09:16:43;;;;;;;9.80;5.78;;;;;;;;;;5073207;28;20333;-26
2023/12/04 09:19:08;;;;;;;9.77;5.47;;;;;;;;;;5073300;28;20024;-26
2023/12/04 09:21:33;;;;;;;9.10;5.45;;;;;;;;;;5073975;28;20032;-26
2023/12/04 09:23:59;;;;;;;9.30;5.27;;;;;;;;;;5073150;28;20090;-26
2023/12/04 09:26:24;;;;;;;11.15;5.70;;;;;;;;;;5073390;28;20258;-27
2023/12/04 09:28:49;;;;;;;11.00;5.30;;;;;;;;;;5073537;28;20032;-27
2023/12/04 09:31:14;;;;;;;9.50;5.60;;;;;;;;;;5072960;28;20027;-26
2023/12/04 09:33:39;;;;;;;10.73;5.45;;;;;;;;;;5072910;28;20251;-27
2023/12/04 09:36:05;;;;;;;10.32;5.28;;;;;;;;;;5075758;28;20024;-26
2023/12/04 09:38:30;;;;;;;9.88;5.28;;;;;;;;;;5077218;28;20091;-27
2023/12/04 09:40:58;;;;;;;9.23;5.22;;;;;;;;;;5076901;28;20020;-27
2023/12/04 09:43:23;;;;;;;9.43;5.20;;;;;;;;;;5076994;28;20107;-26
2023/12/04 09:45:48;;;;;;;10.52;5.60;;;;;;;;;;5076638;28;20450;-27
2023/12/04 09:48:13;;;;;;;10.27;5.23;;;;;;;;;;5076801;28;20025;-27
2023/12/04 09:50:39;;;;;;;11.35;5.40;;;;;;;;;;5076680;28;20354;-27
2023/12/04 09:53:06;;;;;;;9.35;5.13;;;;;;;;;;5076731;28;20043;-26
2023/12/04 09:55:31;;;;;;;10.73;4.72;;;;;;;;;;5076256;28;20021;-26
2023/12/04 09:57:56;;;;;;;9.30;5.20;;;;;;;;;;5076603;28;20032;-27
2023/12/04 10:00:22;;;;;;;8.85;4.72;;;;;;;;;;5076092;28;20048;-28
2023/12/04 10:02:47;;;;;;;8.75;4.70;;;;;;;;;;5076663;28;20012;-27
2023/12/04 10:05:13;;;;;;;8.07;5.05;;;;;;;;;;5076503;28;20438;-26
2023/12/04 10:07:38;;;;;;;9.55;5.13;;;;;;;;;;5076493;28;20020;-26
2023/12/04 10:10:07;;;;;;;9.75;5.50;;;;;;;;;;5076609;28;20016;-27
2023/12/04 10:12:35;;;;;;;9.60;5.03;;;;;;;;;;5075977;28;20067;-27
2023/12/04 10:15:03;;;;;;;10.10;5.05;;;;;;;;;;5076198;28;20067;-28
2023/12/04 10:17:33;;;;;;;9.40;4.90;;;;;;;;;;5076216;28;20161;-26
2023/12/04 10:20:10;;;;;;;9.85;5.35;;;;;;;;;;5075836;28;20074;-26
2023/12/04 10:22:35;;;;;;;10.30;5.07;;;;;;;;;;5076062;28;20017;-26
2023/12/04 10:25:13;;;;;;;10.53;5.47;;;;;;;;;;5076127;28;20115;-27
2023/12/04 10:27:38;;;;;;;9.15;4.90;;;;;;;;;;5075814;28;20247;-26
2023/12/04 10:30:06;;;;;;;9.80;5.20;;;;;;;;;;5075778;28;20027;-27
2023/12/04 10:32:32;;;;;;;10.52;5.20;;;;;;;;;;5075677;28;20368;-26
2023/12/04 10:34:58;;;;;;;10.48;5.20;;;;;;;;;;5076215;28;20030;-27
2023/12/04 10:37:25;;;;;;;10.80;5.40;;;;;;;;;;5075946;28;20028;-26
2023/12/04 10:39:51;;;;;;;9.27;5.13;;;;;;;;;;5076110;28;20013;-26
2023/12/04 10:42:25;;;;;;;10.55;5.50;;;;;;;;;;5075706;28;20029;-27
2023/12/04 10:44:51;;;;;;;10.77;5.28;;;;;;;;;;5074203;28;20519;-27
2023/12/04 10:47:16;;;;;;;11.00;5.43;;;;;;;;;;5075282;28;20136;-27
2023/12/04 10:49:42;;;;;;;9.20;5.07;;;;;;;;;;5075620;28;20020;-27
2023/12/04 10:52:08;;;;;;;10.43;5.60;;;;;;;;;;5075611;28;20172;-26
2023/12/04 10:54:34;;;;;;;12.40;5.85;;;;;;;;;;5076027;28;20019;-26
2023/12/04 10:57:02;;;;;;;10.15;5.50;;;;;;;;;;5075289;28;20024;-27
2023/12/04 10:59:31;;;;;;;10.23;5.70;;;;;;;;;;5075087;28;20032;-26
2023/12/04 11:01:59;;;;;;;11.68;5.60;;;;;;;;;;5075331;28;20028;-26
2023/12/04 11:04:27;;;;;;;9.00;5.13;;;;;;;;;;5075073;28;20096;-27
2023/12/04 11:06:52;;;;;;;10.77;5.90;;;;;;;;;;5075259;28;20044;-26
2023/12/04 11:09:18;;;;;;;9.32;5.50;;;;;;;;;;5074967;28;20349;-26
2023/12/04 11:11:45;;;;;;;12.40;5.30;;;;;;;;;;5075150;28;20451;-27
2023/12/04 11:14:12;;;;;;;10.38;5.40;;;;;;;;;;5075061;28;20015;-26
2023/12/04 11:16:43;;;;;;;11.63;5.70;;;;;;;;;;5075236;28;20016;-26
2023/12/04 11:19:08;;;;;;;12.15;5.15;;;;;;;;;;5075053;28;20456;-27
2023/12/04 11:21:33;;;;;;;11.63;5.80;;;;;;;;;;5075196;28;20096;-26
2023/12/04 11:23:59;;;;;;;9.18;5.38;;;;;;;;;;5074994;28;20266;-27
2023/12/04 11:26:24;;;;;;;11.10;5.72;;;;;;;;;;5075078;28;20447;-26
2023/12/04 11:28:51;;;;;;;8.43;5.25;;;;;;;;;;5074466;28;20478;-27
2023/12/04 11:31:16;;;;;;;11.18;6.03;;;;;;;;;;5075002;28;20026;-27
2023/12/04 11:33:41;;;;;;;12.65;6.30;;;;;;;;;;5074977;28;20092;-27
2023/12/04 11:36:10;;;;;;;12.07;5.97;;;;;;;;;;5075020;28;20070;-27
2023/12/04 11:38:36;;;;;;;12.13;6.32;;;;;;;;;;5074533;28;20725;-26
2023/12/04 11:41:14;;;;;;;11.25;6.00;;;;;;;;;;5074144;28;20067;-27
2023/12/04 11:43:42;;;;;;;10.45;6.07;;;;;;;;;;5074041;28;20110;-26
2023/12/04 11:46:10;;;;;;;10.98;6.18;;;;;;;;;;5074835;28;20024;-27
2023/12/04 11:48:39;;;;;;;11.15;6.05;;;;;;;;;;5074338;28;20410;-27
2023/12/04 11:51:07;;;;;;;12.18;6.20;;;;;;;;;;5074067;28;20031;-26
2023/12/04 11:53:36;;;;;;;13.70;6.50;;;;;;;;;;5073901;28;20100;-26
2023/12/04 11:56:08;;;;;;;11.27;6.50;;;;;;;;;;5073974;28;20079;-26
2023/12/04 11:58:41;;;;;;;11.90;6.13;;;;;;;;;;5073304;28;20021;-26
2023/12/04 12:01:06;;;;;;;11.38;6.20;;;;;;;;;;5073822;28;20048;-26
2023/12/04 12:03:32;;;;;;;12.38;6.70;;;;;;;;;;5074058;28;20017;-27
2023/12/04 12:05:57;;;;;;;12.02;6.03;;;;;;;;;;5073864;28;20021;-27
2023/12/04 12:08:22;;;;;;;11.83;6.50;;;;;;;;;;5073832;28;20459;-26
2023/12/04 12:10:48;;;;;;;11.00;6.50;;;;;;;;;;5074347;28;20262;-27
2023/12/04 12:13:13;;;;;;;13.55;6.78;;;;;;;;;;5073654;28;20133;-26
2023/12/04 12:15:38;;;;;;;12.20;6.80;;;;;;;;;;5074269;28;20025;-26
2023/12/04 12:18:05;;;;;;;11.40;6.53;;;;;;;;;;5073735;28;20021;-26
2023/12/04 12:20:30;;;;;;;14.13;6.55;;;;;;;;;;5073864;28;20748;-26
2023/12/04 12:22:55;;;;;;;15.83;7.00;;;;;;;;;;5073992;28;20052;-26
2023/12/04 12:25:22;;;;;;;12.95;6.78;;;;;;;;;;5073478;28;20606;-26
2023/12/04 12:27:47;;;;;;;11.93;6.82;;;;;;;;;;5073327;28;20021;-27
2023/12/04 12:30:13;;;;;;;14.05;7.63;;;;;;;;;;5073544;28;20017;-26
2023/12/04 12:32:38;;;;;;;13.85;7.15;;;;;;;;;;5073789;28;20020;-26
2023/12/04 12:35:03;;;;;;;13.05;7.10;;;;;;;;;;5073906;28;20096;-27
2023/12/04 12:37:29;;;;;;;21.20;7.50;;;;;;;;;;5073806;28;20020;-26
2023/12/04 12:39:54;;;;;;;16.02;7.50;;;;;;;;;;5073496;28;20021;-27
2023/12/04 12:42:29;;;;;;;13.85;7.57;;;;;;;;;;5073560;28;20013;-27
2023/12/04 12:44:58;;;;;;;15.02;7.55;;;;;;;;;;5073593;28;20036;-27
2023/12/04 12:47:23;;;;;;;13.45;7.47;;;;;;;;;;5073223;28;20039;-26
2023/12/04 12:49:48;;;;;;;13.02;7.03;;;;;;;;;;5073559;28;20024;-26
2023/12/04 12:52:14;;;;;;;15.43;7.20;;;;;;;;;;5073206;28;20523;-27
2023/12/04 12:54:39;;;;;;;12.63;7.15;;;;;;;;;;5073161;28;20278;-26
2023/12/04 12:57:05;;;;;;;12.65;7.22;;;;;;;;;;5073788;28;20056;-27
2023/12/04 12:59:30;;;;;;;13.55;7.07;;;;;;;;;;5073039;28;20159;-27
2023/12/04 13:01:56;;;;;;;25.15;7.40;;;;;;;;;;5072520;28;20028;-26
2023/12/04 13:04:21;;;;;;;14.75;7.55;;;;;;;;;;5072519;28;20086;-27
2023/12/04 13:06:47;;;;;;;12.77;7.10;;;;;;;;;;5072615;28;20013;-26
2023/12/04 13:09:18;;;;;;;13.68;7.22;;;;;;;;;;5073588;28;20051;-27
2023/12/04 13:11:46;;;;;;;12.30;7.30;;;;;;;;;;5077168;28;20058;-26
2023/12/04 13:14:11;;;;;;;15.55;7.05;;;;;;;;;;5077398;28;20426;-27
2023/12/04 13:16:37;;;;;;;15.25;7.25;;;;;;;;;;5076998;28;20096;-26
2023/12/04 13:19:02;;;;;;;14.73;7.07;;;;;;;;;;5077577;28;20012;-26
2023/12/04 13:21:27;;;;;;;14.57;7.70;;;;;;;;;;5077027;28;20674;-26
2023/12/04 13:23:52;;;;;;;14.00;6.82;;;;;;;;;;5076866;28;20314;-27
2023/12/04 13:26:18;;;;;;;14.63;7.85;;;;;;;;;;5077169;28;20047;-26
2023/12/04 13:28:43;;;;;;;14.82;7.18;;;;;;;;;;5076856;28;20383;-26
2023/12/04 13:31:08;;;;;;;14.85;7.18;;;;;;;;;;5077381;28;20029;-26
2023/12/04 13:33:33;;;;;;;13.27;7.20;;;;;;;;;;5077007;28;20383;-27
2023/12/04 13:35:59;;;;;;;15.63;7.63;;;;;;;;;;5077220;28;20266;-26
2023/12/04 13:38:24;;;;;;;15.38;6.97;;;;;;;;;;5076609;28;20411;-26
2023/12/04 13:40:59;;;;;;;15.20;7.75;;;;;;;;;;5076785;28;20032;-26
2023/12/04 13:46:11;;;;;;;12.32;6.68;;;;;;;;;;5076610;28;20537;-26
2023/12/04 13:48:40;;;;;;;14.77;7.13;;;;;;;;;;5076407;28;20020;-27
2023/12/04 13:51:05;;;;;;;14.80;7.13;;;;;;;;;;5076883;28;20479;-26
2023/12/04 13:53:30;;;;;;;13.40;7.25;;;;;;;;;;5076591;28;20029;-26
2023/12/04 13:56:24;;;;;;;15.80;7.88;;;;;;;;;;5076546;28;20016;-27
2023/12/04 13:58:44;;;;;;;14.10;7.28;;;;;;;;;;5076040;28;20063;-26
2023/12/04 14:01:13;;;;;;;12.10;7.13;;;;;;;;;;5076022;28;20059;-26
2023/12/04 14:03:42;;;;;;;14.18;7.57;;;;;;;;;;5076342;28;20016;-26
2023/12/04 14:06:07;;;;;;;21.08;8.10;;;;;;;;;;5076246;28;20426;-26
2023/12/04 14:08:32;;;;;;;16.20;8.70;;;;;;;;;;5076516;28;20017;-26
2023/12/04 14:10:57;;;;;;;15.77;8.23;;;;;;;;;;5075898;28;20479;-26
2023/12/04 14:13:23;;;;;;;14.13;7.30;;;;;;;;;;5076007;28;20270;-26
2023/12/04 14:15:48;;;;;;;13.60;7.50;;;;;;;;;;5076552;28;20024;-26
2023/12/04 14:18:13;;;;;;;14.00;7.63;;;;;;;;;;5076343;28;20460;-26
2023/12/04 14:20:39;;;;;;;15.23;8.33;;;;;;;;;;5075332;28;20491;-27
2023/12/04 14:23:04;;;;;;;17.03;8.03;;;;;;;;;;5075819;28;20285;-27